Time;durP1;ratioP1;P1;durP2;ratioP2;P2;SDS_P1;SDS_P2;PMS_P1;PMS_P2;Temp;Humidity;BMP_temperature;BMP_pressure;BME280_temperature;BME280_humidity;BME280_pressure;Samples;Min_cycle;Max_cycle;Signal;HPM_P1;HPM_P2
2022/10/14 00:00:13;;;;;;;52.95;31.27;;;14.70;99.90;;;;;;4966690;28;102415;-75
2022/10/14 00:02:40;;;;;;;57.53;32.60;;;14.70;99.90;;;;;;4952571;28;99094;-75
2022/10/14 00:05:08;;;;;;;59.65;32.30;;;14.70;99.90;;;;;;4952225;28;99017;-75
2022/10/14 00:07:36;;;;;;;45.58;28.98;;;14.70;99.90;;;;;;4952296;28;99115;-75
2022/10/14 00:10:04;;;;;;;54.03;31.52;;;14.70;99.90;;;;;;4933699;28;103760;-75
2022/10/14 00:12:33;;;;;;;45.67;31.00;;;14.70;99.90;;;;;;4952968;28;102890;-75
2022/10/14 00:15:00;;;;;;;54.88;30.98;;;14.70;99.90;;;;;;4954209;28;98519;-75
2022/10/14 00:17:27;;;;;;;48.15;31.25;;;14.70;99.90;;;;;;4955705;28;98509;-75
2022/10/14 00:19:54;;;;;;;50.25;30.48;;;14.70;99.90;;;;;;4955082;28;99428;-75
2022/10/14 00:22:20;;;;;;;50.63;31.83;;;14.70;99.90;;;;;;4970096;28;101715;-75
2022/10/14 00:24:47;;;;;;;52.50;30.88;;;14.70;99.90;;;;;;4954440;28;98893;-75
2022/10/14 00:27:14;;;;;;;52.05;31.17;;;14.60;99.90;;;;;;4954585;28;98450;-75
2022/10/14 00:29:42;;;;;;;56.95;33.05;;;14.70;99.90;;;;;;4953585;28;100564;-75
2022/10/14 00:32:09;;;;;;;46.83;29.92;;;14.70;99.90;;;;;;4969642;28;101777;-75
2022/10/14 00:34:36;;;;;;;50.75;31.10;;;14.70;99.90;;;;;;4953799;28;99876;-75
2022/10/14 00:37:04;;;;;;;56.15;31.70;;;14.70;99.90;;;;;;4937764;28;98589;-75
2022/10/14 00:39:31;;;;;;;58.83;31.60;;;14.60;99.90;;;;;;4953666;28;100545;-75
2022/10/14 00:41:58;;;;;;;57.00;32.53;;;14.60;99.90;;;;;;4969881;28;102109;-75
2022/10/14 00:44:25;;;;;;;52.72;31.92;;;14.70;99.90;;;;;;4953628;28;98599;-75
2022/10/14 00:46:53;;;;;;;57.50;32.20;;;14.60;99.90;;;;;;4953817;28;98624;-75
2022/10/14 00:49:24;;;;;;;53.80;32.42;;;14.60;99.90;;;;;;4953297;28;99252;-75
2022/10/14 00:51:59;;;;;;;55.78;30.92;;;14.70;99.90;;;;;;4954202;28;101795;-75
2022/10/14 00:54:41;;;;;;;48.53;28.98;;;14.70;99.90;;;;;;4955274;28;98490;-75
2022/10/14 00:57:08;;;;;;;57.00;31.40;;;14.70;99.90;;;;;;4955112;28;98489;-75
2022/10/14 00:59:36;;;;;;;55.60;29.55;;;14.60;99.90;;;;;;4954115;28;100021;-75
2022/10/14 01:02:03;;;;;;;55.63;30.95;;;14.60;99.90;;;;;;4953161;28;102486;-75
2022/10/14 01:04:31;;;;;;;52.83;30.15;;;14.60;99.90;;;;;;4953768;28;98476;-75
2022/10/14 01:07:14;;;;;;;50.97;29.38;;;14.60;99.90;;;;;;4953522;28;98636;-75
2022/10/14 01:10:07;;;;;;;45.53;29.23;;;14.60;99.90;;;;;;4953485;28;99250;-75
2022/10/14 01:12:42;;;;;;;51.03;29.05;;;14.60;99.90;;;;;;4954738;28;99029;-75
2022/10/14 01:15:09;;;;;;;53.50;30.38;;;14.50;99.90;;;;;;4953345;28;99040;-75
2022/10/14 01:18:13;;;;;;;42.70;27.65;;;14.50;99.90;;;;;;4955257;28;97769;-75
2022/10/14 01:20:40;;;;;;;;;;;14.50;99.90;;;;;;4953539;28;102365;-75
2022/10/14 01:23:20;;;;;;;51.45;27.92;;;14.30;99.90;;;;;;4954736;28;98569;-75
2022/10/14 01:26:05;;;;;;;50.30;28.70;;;14.40;99.90;;;;;;4969552;28;99745;-75
2022/10/14 01:29:10;;;;;;;47.13;28.90;;;14.30;99.90;;;;;;4954882;28;98569;-75
2022/10/14 01:31:43;;;;;;;45.20;26.95;;;14.40;99.90;;;;;;4954277;28;99212;-75
2022/10/14 01:34:15;;;;;;;72.72;29.85;;;14.40;99.90;;;;;;4952460;28;101574;-75
2022/10/14 01:36:47;;;;;;;50.78;28.42;;;14.30;99.90;;;;;;4954439;28;98440;-75
2022/10/14 01:39:20;;;;;;;48.10;27.50;;;14.40;99.90;;;;;;4968942;28;98600;-75
2022/10/14 01:42:02;;;;;;;46.78;26.75;;;14.40;99.90;;;;;;4953165;28;99893;-75
2022/10/14 01:44:31;;;;;;;52.20;26.92;;;14.40;99.90;;;;;;4952677;28;101423;-75
2022/10/14 01:47:01;;;;;;;58.95;26.70;;;14.40;99.90;;;;;;4969246;28;99073;-75
2022/10/14 01:49:43;;;;;;;125.03;30.50;;;14.30;99.90;;;;;;4936410;28;99358;-75
2022/10/14 01:52:21;;;;;;;65.95;27.48;;;14.40;99.90;;;;;;4953699;28;99926;-75
2022/10/14 01:54:52;;;;;;;50.72;25.92;;;14.40;99.90;;;;;;4968671;28;102488;-75
2022/10/14 01:57:25;;;;;;;58.42;26.33;;;14.30;99.90;;;;;;4968843;28;98563;-75
2022/10/14 01:59:54;;;;;;;73.27;25.27;;;14.30;99.90;;;;;;4969032;28;98533;-75
2022/10/14 02:02:23;;;;;;;106.25;26.05;;;14.30;99.90;;;;;;4968349;28;101931;-75
2022/10/14 02:04:50;;;;;;;126.93;27.50;;;14.30;99.90;;;;;;4952324;28;101945;-75
2022/10/14 02:07:21;;;;;;;162.93;28.13;;;14.30;99.90;;;;;;4968711;28;98524;-75
2022/10/14 02:09:48;;;;;;;143.48;29.10;;;14.30;99.90;;;;;;4953075;28;97861;-75
2022/10/14 02:12:21;;;;;;;150.57;29.05;;;14.20;99.90;;;;;;4968338;28;99512;-75
2022/10/14 02:15:02;;;;;;;103.82;25.95;;;14.30;99.90;;;;;;4952068;28;101457;-75
2022/10/14 02:17:42;;;;;;;130.38;28.13;;;14.30;99.90;;;;;;4968268;28;99291;-75
2022/10/14 02:20:36;;;;;;;160.38;27.02;;;14.30;99.90;;;;;;4952801;28;98558;-75
2022/10/14 02:23:17;;;;;;;133.30;24.80;;;14.30;99.90;;;;;;4953342;28;99307;-75
2022/10/14 02:25:46;;;;;;;119.97;24.48;;;14.20;99.90;;;;;;4968414;28;101612;-75
2022/10/14 02:28:17;;;;;;;135.30;25.73;;;14.20;99.90;;;;;;4968595;28;99110;-75
2022/10/14 02:30:54;;;;;;;157.57;28.02;;;14.20;99.90;;;;;;4952247;28;99383;-75
2022/10/14 02:33:25;;;;;;;287.05;31.40;;;14.20;99.90;;;;;;4967524;28;101682;-75
2022/10/14 02:35:53;;;;;;;280.25;34.65;;;14.10;99.90;;;;;;4953467;28;99149;-75
2022/10/14 02:38:20;;;;;;;150.27;26.38;;;14.10;99.90;;;;;;4968365;28;99039;-75
2022/10/14 02:40:51;;;;;;;266.30;32.65;;;14.10;99.90;;;;;;4952062;28;98646;-75
2022/10/14 02:43:18;;;;;;;212.30;26.85;;;14.10;99.90;;;;;;4967378;28;103100;-75
2022/10/14 02:45:45;;;;;;;190.80;25.77;;;14.10;99.90;;;;;;4967865;28;102452;-75
2022/10/14 02:48:12;;;;;;;181.35;25.92;;;14.00;99.90;;;;;;4935998;28;99270;-75
2022/10/14 02:50:41;;;;;;;206.38;24.58;;;14.00;99.90;;;;;;4951683;28;98606;-75
2022/10/14 02:53:11;;;;;;;122.65;20.20;;;14.00;99.90;;;;;;4967740;28;102034;-75
2022/10/14 02:55:38;;;;;;;182.23;22.55;;;14.00;99.90;;;;;;4967745;28;101622;-75
2022/10/14 02:58:05;;;;;;;88.63;20.65;;;13.90;99.90;;;;;;4968173;28;99194;-75
2022/10/14 03:00:33;;;;;;;118.40;21.02;;;13.90;99.90;;;;;;4935525;28;97939;-75
2022/10/14 03:03:00;;;;;;;143.80;22.38;;;13.90;99.90;;;;;;4951452;28;101537;-75
2022/10/14 03:05:28;;;;;;;123.78;18.02;;;13.90;99.90;;;;;;4951229;28;101364;-75
2022/10/14 03:07:55;;;;;;;123.00;20.38;;;13.80;99.90;;;;;;4952860;28;100131;-75
2022/10/14 03:10:25;;;;;;;138.40;22.35;;;13.80;99.90;;;;;;4951920;28;98639;-75
2022/10/14 03:12:53;;;;;;;117.53;23.05;;;13.70;99.90;;;;;;4967597;28;101765;-75
2022/10/14 03:15:28;;;;;;;119.60;20.00;;;13.70;99.90;;;;;;4967352;28;101672;-75
2022/10/14 03:17:56;;;;;;;141.13;21.13;;;13.70;99.90;;;;;;4951631;28;98590;-75
2022/10/14 03:20:32;;;;;;;118.13;19.63;;;13.70;99.90;;;;;;4951326;28;98578;-75
2022/10/14 03:22:59;;;;;;;151.15;21.00;;;13.60;99.90;;;;;;4967484;28;101311;-75
2022/10/14 03:25:27;;;;;;;129.88;18.52;;;13.50;99.90;;;;;;4951517;28;101182;-75
2022/10/14 03:28:00;;;;;;;90.28;18.05;;;13.50;99.90;;;;;;4952957;28;98477;-75
2022/10/14 03:30:50;;;;;;;116.05;17.13;;;13.50;99.90;;;;;;4952668;28;98551;-75
2022/10/14 03:33:31;;;;;;;87.13;14.93;;;13.50;99.90;;;;;;4950358;28;101956;-75
2022/10/14 03:36:09;;;;;;;106.10;16.15;;;13.40;99.90;;;;;;4952293;28;101091;-75
2022/10/14 03:38:49;;;;;;;95.97;15.30;;;13.40;99.90;;;;;;4950975;28;98649;-75
2022/10/14 03:41:25;;;;;;;112.55;17.70;;;13.40;99.90;;;;;;4951333;28;99281;-75
2022/10/14 03:43:52;;;;;;;162.98;19.98;;;13.40;99.90;;;;;;4934689;28;102606;-75
2022/10/14 03:46:19;;;;;;;133.30;17.02;;;13.40;99.90;;;;;;4953064;28;101484;-75
2022/10/14 03:48:47;;;;;;;123.25;19.15;;;13.40;99.90;;;;;;4925361;28;98629;-75
2022/10/14 03:51:14;;;;;;;85.57;17.70;;;13.40;99.90;;;;;;4958030;28;97827;-75
2022/10/14 03:53:42;;;;;;;162.90;22.00;;;13.40;99.90;;;;;;4941118;28;101310;-75
2022/10/14 03:56:11;;;;;;;94.05;18.30;;;13.40;99.90;;;;;;4957215;28;101548;-75
2022/10/14 03:58:39;;;;;;;72.40;16.55;;;13.40;99.90;;;;;;4973449;28;99709;-75
2022/10/14 04:01:11;;;;;;;111.72;18.52;;;13.40;99.90;;;;;;4974020;28;98647;-75
2022/10/14 04:04:00;;;;;;;81.50;17.17;;;13.30;99.90;;;;;;4960401;28;100364;-75
2022/10/14 04:06:30;;;;;;;64.28;14.48;;;13.30;99.90;;;;;;4957611;28;101028;-75
2022/10/14 04:08:59;;;;;;;59.80;14.00;;;13.30;99.90;;;;;;4941847;28;99034;-75
2022/10/14 04:11:32;;;;;;;74.23;15.33;;;13.20;99.90;;;;;;4941684;28;98635;-75
2022/10/14 04:14:03;;;;;;;62.13;12.90;;;13.20;99.90;;;;;;4941699;28;101783;-75
2022/10/14 04:16:36;;;;;;;54.20;15.93;;;13.10;99.90;;;;;;4941756;28;101687;-75
2022/10/14 04:19:11;;;;;;;80.10;16.88;;;13.10;99.90;;;;;;4973835;28;98644;-75
2022/10/14 04:21:40;;;;;;;75.55;15.80;;;13.00;99.90;;;;;;4925300;28;98671;-75
2022/10/14 04:24:09;;;;;;;70.07;17.50;;;13.10;99.90;;;;;;4972725;28;102433;-75
2022/10/14 04:26:41;;;;;;;53.72;15.40;;;13.10;99.90;;;;;;4957417;28;102238;-75
2022/10/14 04:29:14;;;;;;;52.38;16.60;;;13.10;99.90;;;;;;4942144;28;98606;-75
2022/10/14 04:31:51;;;;;;;49.08;15.38;;;13.10;99.90;;;;;;4973541;28;98747;-75
2022/10/14 04:34:19;;;;;;;46.30;14.40;;;13.10;99.90;;;;;;4940362;28;101727;-75
2022/10/14 04:36:46;;;;;;;36.53;13.77;;;13.10;99.90;;;;;;4956758;28;101854;-75
2022/10/14 04:39:27;;;;;;;35.35;14.40;;;13.10;99.90;;;;;;4928582;28;98618;-75
2022/10/14 04:41:54;;;;;;;28.95;12.75;;;13.10;99.90;;;;;;4973537;28;97890;-75
2022/10/14 04:44:22;;;;;;;33.35;12.32;;;13.10;99.90;;;;;;4940639;28;101766;-75
2022/10/14 04:46:52;;;;;;;29.90;12.00;;;13.10;99.90;;;;;;4956285;28;101379;-75
2022/10/14 04:49:22;;;;;;;32.83;12.63;;;13.10;99.90;;;;;;4973005;28;99279;-75
2022/10/14 04:51:58;;;;;;;25.10;12.52;;;13.10;99.90;;;;;;4973236;28;98622;-75
2022/10/14 04:54:33;;;;;;;30.58;12.32;;;13.10;99.90;;;;;;4973051;28;100431;-75
2022/10/14 04:57:00;;;;;;;45.42;15.45;;;13.20;99.90;;;;;;4956212;28;102001;-75
2022/10/14 04:59:28;;;;;;;39.10;16.35;;;13.20;99.90;;;;;;4953378;28;98611;-75
2022/10/14 05:02:14;;;;;;;41.05;16.63;;;13.20;99.90;;;;;;4953200;28;99138;-75
2022/10/14 05:04:48;;;;;;;57.58;18.17;;;13.20;99.90;;;;;;4953047;28;101709;-75
2022/10/14 05:07:15;;;;;;;53.10;19.70;;;13.20;99.90;;;;;;4921821;28;101393;-75
2022/10/14 05:09:44;;;;;;;50.75;18.63;;;13.20;99.90;;;;;;4969667;28;98589;-75
2022/10/14 05:12:23;;;;;;;51.55;18.95;;;13.30;99.90;;;;;;4969744;28;98510;-75
2022/10/14 05:14:56;;;;;;;53.35;19.85;;;13.20;99.90;;;;;;4952577;28;102060;-75
2022/10/14 05:17:29;;;;;;;52.85;20.45;;;13.30;99.90;;;;;;4969332;28;102149;-75
2022/10/14 05:19:56;;;;;;;50.92;19.80;;;13.30;99.90;;;;;;4953102;28;98637;-75
2022/10/14 05:22:26;;;;;;;42.85;18.05;;;13.30;99.90;;;;;;4953048;28;98646;-75
2022/10/14 05:24:53;;;;;;;43.05;17.67;;;13.40;99.90;;;;;;4952571;28;102059;-75
2022/10/14 05:27:20;;;;;;;42.50;18.17;;;13.40;99.90;;;;;;4969110;28;101406;-75
2022/10/14 05:29:47;;;;;;;49.75;18.98;;;13.40;99.90;;;;;;4937141;28;99111;-75
2022/10/14 05:32:15;;;;;;;50.63;18.67;;;13.40;99.90;;;;;;4936929;28;97794;-75
2022/10/14 05:34:47;;;;;;;50.05;19.42;;;13.40;99.90;;;;;;4968789;28;101566;-75
2022/10/14 05:37:24;;;;;;;43.85;17.55;;;13.50;99.90;;;;;;4938330;28;101187;-75
2022/10/14 05:39:54;;;;;;;42.70;17.52;;;13.50;99.90;;;;;;4952466;28;99374;-75
2022/10/14 05:42:24;;;;;;;39.20;18.80;;;13.50;99.90;;;;;;4952956;28;98559;-75
2022/10/14 05:44:54;;;;;;;44.60;19.33;;;13.50;99.90;;;;;;4968742;28;102314;-75
2022/10/14 05:47:22;;;;;;;37.63;17.63;;;13.50;99.90;;;;;;4952492;28;101116;-75
2022/10/14 05:49:55;;;;;;;43.45;18.42;;;13.50;99.90;;;;;;4937133;28;98669;-75
2022/10/14 05:52:22;;;;;;;37.65;18.10;;;13.50;99.90;;;;;;4952789;28;98586;-75
2022/10/14 05:54:49;;;;;;;43.17;18.55;;;13.50;99.90;;;;;;4968593;28;102195;-75
2022/10/14 05:57:19;;;;;;;39.92;19.25;;;13.50;99.90;;;;;;4937076;28;101520;-75
2022/10/14 05:59:46;;;;;;;38.15;17.98;;;13.50;99.90;;;;;;4952531;28;98625;-75
2022/10/14 06:02:13;;;;;;;39.42;18.95;;;13.50;99.90;;;;;;4952914;28;98591;-75
2022/10/14 06:04:41;;;;;;;39.60;19.30;;;13.40;99.90;;;;;;4951833;28;102946;-75
2022/10/14 06:07:09;;;;;;;38.85;21.00;;;13.40;99.90;;;;;;4952177;28;102300;-75
2022/10/14 06:09:37;;;;;;;38.00;19.23;;;13.40;99.90;;;;;;4952002;28;98621;-75
2022/10/14 06:12:05;;;;;;;38.70;20.48;;;13.40;99.90;;;;;;4952331;28;98521;-75
2022/10/14 06:14:32;;;;;;;41.72;20.38;;;13.40;99.90;;;;;;4968388;28;101647;-75
2022/10/14 06:16:59;;;;;;;36.50;20.73;;;13.40;99.90;;;;;;4936004;28;101016;-75
2022/10/14 06:19:31;;;;;;;35.13;19.70;;;13.40;99.90;;;;;;4952490;28;98601;-75
2022/10/14 06:21:58;;;;;;;41.40;21.88;;;13.40;99.90;;;;;;4953864;28;97799;-75
2022/10/14 06:24:26;;;;;;;43.55;21.38;;;13.50;99.90;;;;;;4935968;28;99303;-75
2022/10/14 06:26:53;;;;;;;37.47;20.90;;;13.50;99.90;;;;;;4953118;28;99018;-75
2022/10/14 06:29:22;;;;;;;42.42;22.00;;;13.50;99.90;;;;;;4951802;28;99194;-75
2022/10/14 06:31:49;;;;;;;36.75;20.00;;;13.50;99.90;;;;;;4920472;28;99595;-75
2022/10/14 06:34:17;;;;;;;45.15;22.45;;;13.50;99.90;;;;;;4953155;28;99283;-75
2022/10/14 06:36:44;;;;;;;31.67;18.75;;;13.50;99.90;;;;;;4952103;28;99198;-75
2022/10/14 06:39:10;;;;;;;34.72;20.65;;;13.40;99.90;;;;;;4953169;28;98492;-75
2022/10/14 06:41:37;;;;;;;34.10;19.08;;;13.40;99.90;;;;;;4953122;28;98561;-75
2022/10/14 06:44:12;;;;;;;;;;;13.40;99.90;;;;;;4968154;28;100347;-75
2022/10/14 06:46:39;;;;;;;33.28;19.83;;;13.40;99.90;;;;;;4955119;28;98804;-75
2022/10/14 06:49:06;;;;;;;36.75;20.45;;;13.40;99.90;;;;;;4952225;28;99416;-75
2022/10/14 06:51:34;;;;;;;35.50;21.45;;;13.50;99.90;;;;;;4968358;28;98658;-75
2022/10/14 06:54:00;;;;;;;35.53;19.45;;;13.60;99.90;;;;;;4967129;28;105126;-75
2022/10/14 06:56:27;;;;;;;32.08;19.63;;;13.70;99.90;;;;;;4951780;28;100924;-75
2022/10/14 06:58:55;;;;;;;33.72;19.80;;;13.70;99.90;;;;;;4951877;28;99025;-75
2022/10/14 07:01:22;;;;;;;35.85;20.92;;;13.80;99.90;;;;;;4953167;28;98529;-75
2022/10/14 07:03:49;;;;;;;36.08;22.30;;;13.80;99.90;;;;;;4952744;28;99509;-75
2022/10/14 07:06:18;;;;;;;35.28;21.27;;;13.90;99.90;;;;;;4935396;28;99201;-75
2022/10/14 07:08:45;;;;;;;28.63;17.88;;;14.00;99.90;;;;;;4951380;28;98646;-75
2022/10/14 07:11:12;;;;;;;25.42;15.57;;;14.00;99.90;;;;;;4952152;28;97814;-75
2022/10/14 07:13:39;;;;;;;27.67;16.75;;;13.90;99.90;;;;;;4951498;28;101732;-75
2022/10/14 07:16:06;;;;;;;28.92;17.55;;;13.90;99.90;;;;;;4951109;28;99036;-75
2022/10/14 07:18:33;;;;;;;24.95;16.00;;;13.90;99.90;;;;;;4935029;28;99236;-75
2022/10/14 07:21:04;;;;;;;24.38;15.70;;;13.90;99.90;;;;;;4934361;28;98629;-75
2022/10/14 07:23:31;;;;;;;24.65;15.95;;;14.00;99.90;;;;;;4952570;28;99501;-75
2022/10/14 07:25:59;;;;;;;25.10;15.48;;;14.00;99.90;;;;;;4950810;28;101451;-75
2022/10/14 07:28:27;;;;;;;21.85;14.02;;;14.00;99.90;;;;;;4952760;28;98524;-75
2022/10/14 07:31:10;;;;;;;22.88;14.65;;;14.00;99.90;;;;;;4951452;28;98662;-75
2022/10/14 07:33:39;;;;;;;24.55;15.25;;;14.10;99.90;;;;;;4966850;28;101795;-75
2022/10/14 07:36:11;;;;;;;26.25;15.98;;;14.10;99.90;;;;;;4951012;28;101802;-75
2022/10/14 07:38:39;;;;;;;24.38;16.05;;;14.20;99.90;;;;;;4951810;28;98559;-75
2022/10/14 07:41:15;;;;;;;24.58;16.15;;;14.30;99.90;;;;;;4918892;28;98584;-75
2022/10/14 07:43:51;;;;;;;22.73;14.95;;;14.40;99.90;;;;;;4950771;28;100215;-75
2022/10/14 07:46:28;;;;;;;20.38;14.60;;;14.60;99.90;;;;;;4950881;28;99916;-75
2022/10/14 07:48:56;;;;;;;23.60;16.30;;;14.70;99.90;;;;;;4953143;28;99455;-75
2022/10/14 07:51:24;;;;;;;21.95;15.25;;;14.90;99.90;;;;;;4951105;28;98637;-75
2022/10/14 07:53:51;;;;;;;23.33;15.52;;;15.00;99.90;;;;;;4952279;28;99306;-75
2022/10/14 07:56:19;;;;;;;26.33;17.23;;;15.10;99.90;;;;;;4950765;28;99107;-75
2022/10/14 07:58:46;;;;;;;24.42;16.60;;;15.20;99.90;;;;;;4952360;28;98618;-75
2022/10/14 08:01:14;;;;;;;24.35;15.85;;;15.30;99.90;;;;;;4951420;28;97934;-75
2022/10/14 08:03:42;;;;;;;25.77;16.70;;;15.30;99.90;;;;;;4951969;28;99276;-75
2022/10/14 08:06:09;;;;;;;22.92;16.38;;;15.30;99.90;;;;;;4966872;28;99042;-75
2022/10/14 08:08:37;;;;;;;24.90;16.35;;;15.30;99.90;;;;;;4967023;28;99605;-75
2022/10/14 08:11:07;;;;;;;24.90;16.40;;;15.40;99.90;;;;;;4951988;28;98573;-75
2022/10/14 08:13:34;;;;;;;23.83;17.23;;;15.40;99.90;;;;;;4951791;28;99419;-75
2022/10/14 08:16:02;;;;;;;25.65;16.88;;;15.40;99.90;;;;;;4950607;28;99362;-75
2022/10/14 08:18:29;;;;;;;25.15;17.08;;;15.50;99.90;;;;;;4934937;28;98743;-75
2022/10/14 08:20:56;;;;;;;26.08;17.70;;;15.50;99.90;;;;;;4952370;28;98564;-75
2022/10/14 08:23:23;;;;;;;26.60;18.17;;;15.50;99.90;;;;;;4950337;28;102353;-75
2022/10/14 08:25:50;;;;;;;26.40;18.10;;;15.50;99.90;;;;;;4950912;28;99023;-75
2022/10/14 08:28:17;;;;;;;27.35;18.05;;;15.60;99.90;;;;;;4950699;28;99132;-75
2022/10/14 08:30:44;;;;;;;27.90;18.33;;;15.60;99.90;;;;;;4952029;28;98524;-75
2022/10/14 08:33:12;;;;;;;26.92;16.95;;;15.60;99.90;;;;;;4935601;28;99984;-75
2022/10/14 08:35:39;;;;;;;27.33;17.92;;;15.70;99.90;;;;;;4953733;28;100775;-75
2022/10/14 08:38:06;;;;;;;26.88;18.65;;;15.70;99.90;;;;;;4954111;28;98598;-75
2022/10/14 08:40:54;;;;;;;31.17;18.25;;;15.70;99.90;;;;;;4955246;28;98600;-75
2022/10/14 08:43:31;;;;;;;21.50;16.67;;;15.90;99.90;;;;;;4953581;28;99262;-75
2022/10/14 08:46:12;;;;;;;22.77;16.75;;;15.80;99.90;;;;;;4937349;28;101658;-75
2022/10/14 08:48:39;;;;;;;23.98;17.23;;;15.90;99.90;;;;;;4955494;28;98548;-75
2022/10/14 08:51:12;;;;;;;22.73;16.70;;;15.90;99.90;;;;;;4955376;28;97793;-75
2022/10/14 08:53:50;;;;;;;22.35;16.23;;;15.90;99.90;;;;;;4969983;28;100433;-75
2022/10/14 08:56:18;;;;;;;27.98;18.02;;;15.90;99.90;;;;;;4969648;28;100531;-75
2022/10/14 08:58:49;;;;;;;26.63;19.40;;;15.90;99.90;;;;;;4953579;28;99402;-75
2022/10/14 09:01:30;;;;;;;24.55;16.90;;;16.00;99.90;;;;;;4954912;28;98520;-75
2022/10/14 09:04:04;;;;;;;25.88;17.13;;;16.00;99.90;;;;;;4953604;28;99313;-75
2022/10/14 09:06:34;;;;;;;30.73;20.85;;;15.90;99.90;;;;;;4954581;28;98970;-75
2022/10/14 09:09:06;;;;;;;28.58;18.27;;;16.00;99.90;;;;;;4955170;28;98450;-75
2022/10/14 09:11:39;;;;;;;28.88;18.33;;;16.00;99.90;;;;;;4954576;28;98610;-75
2022/10/14 09:14:10;;;;;;;27.83;18.37;;;16.00;99.90;;;;;;4936813;28;102597;-75
2022/10/14 09:16:39;;;;;;;24.38;16.40;;;16.00;99.90;;;;;;4970014;28;101797;-75
2022/10/14 09:19:24;;;;;;;27.20;18.38;;;16.00;99.90;;;;;;4954348;28;99376;-75
2022/10/14 09:21:55;;;;;;;25.45;17.05;;;16.10;99.90;;;;;;4954817;28;98530;-75
2022/10/14 09:24:34;;;;;;;25.88;17.70;;;16.20;99.90;;;;;;4953656;28;100030;-75
2022/10/14 09:27:15;;;;;;;30.50;20.23;;;16.30;99.90;;;;;;4953238;28;99985;-75
2022/10/14 09:29:47;;;;;;;30.52;19.80;;;16.30;99.90;;;;;;4954833;28;98453;-75
2022/10/14 09:32:32;;;;;;;34.55;20.70;;;16.30;99.90;;;;;;4954619;28;98489;-75
2022/10/14 09:35:00;;;;;;;34.80;19.45;;;16.10;99.90;;;;;;4969262;28;99280;-75
2022/10/14 09:37:30;;;;;;;36.10;21.17;;;16.10;99.90;;;;;;4952653;28;99284;-75
2022/10/14 09:40:15;;;;;;;36.47;20.42;;;16.10;99.90;;;;;;4953205;28;98662;-75
2022/10/14 09:43:00;;;;;;;35.25;20.83;;;16.10;99.90;;;;;;4954970;28;97817;-75
2022/10/14 09:45:46;;;;;;;38.55;23.02;;;16.20;99.90;;;;;;4967956;28;99331;-75
2022/10/14 09:48:17;;;;;;;35.40;20.25;;;16.20;99.90;;;;;;4954187;28;99279;-75
2022/10/14 09:50:54;;;;;;;38.72;23.00;;;16.20;99.90;;;;;;4968928;28;99286;-75
2022/10/14 09:53:26;;;;;;;35.88;20.73;;;16.30;99.90;;;;;;4952901;28;98631;-75
2022/10/14 09:55:56;;;;;;;34.85;22.17;;;16.30;99.90;;;;;;4954027;28;99411;-75
2022/10/14 09:58:37;;;;;;;35.58;22.23;;;16.40;99.90;;;;;;4968330;28;101580;-75
2022/10/14 10:01:05;;;;;;;39.42;22.25;;;16.40;99.90;;;;;;4936537;28;98529;-75
2022/10/14 10:03:34;;;;;;;40.63;23.38;;;16.40;99.90;;;;;;4952618;28;98625;-75
2022/10/14 10:06:05;;;;;;;43.28;24.80;;;16.40;99.90;;;;;;4952133;28;101755;-75
2022/10/14 10:08:35;;;;;;;41.83;22.67;;;16.40;99.90;;;;;;4969016;28;99098;-75
2022/10/14 10:11:09;;;;;;;37.75;24.02;;;16.40;99.90;;;;;;4968786;28;98619;-75
2022/10/14 10:13:45;;;;;;;38.25;23.50;;;16.40;99.90;;;;;;4953883;28;98437;-75
2022/10/14 10:16:21;;;;;;;37.75;23.52;;;16.40;99.90;;;;;;4953292;28;99981;-75
2022/10/14 10:18:49;;;;;;;36.40;23.05;;;16.40;99.90;;;;;;4952021;28;102353;-75
2022/10/14 10:21:31;;;;;;;35.55;22.23;;;16.30;99.90;;;;;;4968858;28;98638;-75
2022/10/14 10:24:02;;;;;;;43.22;23.83;;;16.30;99.90;;;;;;4968729;28;98729;-75
2022/10/14 10:26:33;;;;;;;51.95;26.27;;;16.20;99.90;;;;;;4953314;28;99065;-75
2022/10/14 10:29:03;;;;;;;49.13;24.08;;;16.20;99.90;;;;;;4968393;28;99070;-75
2022/10/14 10:31:36;;;;;;;52.28;25.80;;;16.10;99.90;;;;;;4953781;28;98979;-75
2022/10/14 10:34:44;;;;;;;39.38;21.27;;;16.10;99.90;;;;;;4953788;28;97910;-75
2022/10/14 10:37:24;;;;;;;36.92;21.42;;;16.00;99.90;;;;;;4939262;28;99418;-75
2022/10/14 10:40:25;;;;;;;48.20;24.02;;;15.80;99.90;;;;;;4953314;28;99201;-75
2022/10/14 10:43:17;;;;;;;40.50;22.67;;;15.90;99.90;;;;;;4968276;28;99323;-75
2022/10/14 10:46:02;;;;;;;46.65;24.83;;;15.90;99.90;;;;;;4968348;28;99054;-76
2022/10/14 10:48:44;;;;;;;50.28;25.17;;;15.80;99.90;;;;;;4951513;28;101976;-75
2022/10/14 10:51:26;;;;;;;38.95;22.45;;;15.80;99.90;;;;;;4968096;28;101939;-75
2022/10/14 10:54:08;;;;;;;38.28;21.13;;;15.80;99.90;;;;;;4953401;28;98516;-75
2022/10/14 10:56:41;;;;;;;48.47;25.50;;;15.80;99.90;;;;;;4953123;28;98430;-75
2022/10/14 10:59:29;;;;;;;59.83;27.85;;;15.80;99.90;;;;;;4951902;28;99362;-75
2022/10/14 11:02:23;;;;;;;49.42;26.15;;;15.90;99.90;;;;;;4953206;28;99164;-75
2022/10/14 11:05:02;;;;;;;52.95;27.45;;;15.80;99.90;;;;;;4953245;28;98872;-75
2022/10/14 11:13:59;;;;;;;44.00;24.63;;;15.80;99.90;;;;;;4967633;28;102557;-75
2022/10/14 11:16:32;;;;;;;61.03;28.48;;;15.80;99.90;;;;;;4951996;28;98696;-75
2022/10/14 11:19:16;;;;;;;39.08;23.85;;;15.80;99.90;;;;;;4953195;28;98398;-76
2022/10/14 11:22:03;;;;;;;;;;;15.70;99.90;;;;;;4951785;28;99109;-75
2022/10/14 11:24:44;;;;;;;42.17;23.27;;;15.60;99.90;;;;;;4953194;28;98691;-75
2022/10/14 11:27:26;;;;;;;40.80;22.77;;;15.60;99.90;;;;;;4953345;28;98655;-76
2022/10/14 11:30:12;;;;;;;41.08;22.98;;;15.70;99.90;;;;;;4951606;28;97871;-75
2022/10/14 11:33:03;;;;;;;49.40;25.77;;;15.70;99.90;;;;;;4966894;28;99324;-75
2022/10/14 11:35:36;;;;;;;43.58;23.73;;;15.80;99.90;;;;;;4967620;28;99094;-75
2022/10/14 11:38:39;;;;;;;42.27;23.27;;;15.80;99.90;;;;;;4951113;28;99465;-75
2022/10/14 11:41:31;;;;;;;46.05;22.67;;;15.80;99.90;;;;;;4952885;28;98469;-75
2022/10/14 11:44:19;;;;;;;38.95;21.45;;;15.80;99.90;;;;;;4952297;28;100241;-75
2022/10/14 11:46:52;;;;;;;39.55;23.50;;;15.80;99.90;;;;;;4944955;28;99042;-75
2022/10/14 11:49:31;;;;;;;42.05;23.73;;;15.70;99.90;;;;;;4952771;28;98504;-75
2022/10/14 11:52:06;;;;;;;37.30;22.70;;;15.80;99.90;;;;;;4952610;28;98508;-75
2022/10/14 11:54:39;;;;;;;43.35;24.38;;;15.90;99.90;;;;;;4950984;28;99303;-75
2022/10/14 11:57:21;;;;;;;40.07;25.03;;;15.90;99.90;;;;;;4952724;28;99057;-75
2022/10/14 12:00:01;;;;;;;46.58;24.65;;;15.90;99.90;;;;;;4967132;28;98649;-75
2022/10/14 12:03:11;;;;;;;37.65;21.33;;;16.10;99.90;;;;;;4951504;28;98660;-75
2022/10/14 12:05:46;;;;;;;41.45;24.00;;;16.10;99.90;;;;;;4950487;28;100063;-75
2022/10/14 12:08:24;;;;;;;36.05;22.77;;;16.20;99.90;;;;;;4952198;28;102357;-75
2022/10/14 12:11:18;;;;;;;47.92;27.42;;;16.30;99.90;;;;;;4970646;28;98612;-75
2022/10/14 12:13:51;;;;;;;40.90;25.40;;;16.40;99.90;;;;;;4950072;28;98665;-75
2022/10/14 12:16:20;;;;;;;44.05;26.65;;;16.50;99.90;;;;;;4954307;28;99261;-75
2022/10/14 12:18:51;;;;;;;43.65;27.05;;;16.40;99.90;;;;;;4953535;28;100446;-75
2022/10/14 12:21:29;;;;;;;44.15;27.17;;;16.50;99.90;;;;;;4956059;28;99085;-75
2022/10/14 12:24:05;;;;;;;45.00;28.15;;;16.50;99.90;;;;;;4953870;28;97816;-75
2022/10/14 12:26:45;;;;;;;52.05;31.45;;;16.40;99.90;;;;;;4955132;28;99312;-75
2022/10/14 12:29:14;;;;;;;57.45;32.55;;;16.40;99.90;;;;;;4955122;28;99110;-75
2022/10/14 12:31:48;;;;;;;50.10;30.58;;;16.40;99.90;;;;;;4969723;28;99325;-75
2022/10/14 12:34:25;;;;;;;48.00;28.90;;;16.40;99.90;;;;;;4953742;28;98594;-75
2022/10/14 12:36:52;;;;;;;47.90;30.58;;;16.40;99.90;;;;;;4954920;28;99426;-75
2022/10/14 12:39:20;;;;;;;49.13;29.88;;;16.50;99.90;;;;;;4955109;28;99341;-75
2022/10/14 12:41:54;;;;;;;61.40;35.20;;;16.60;99.90;;;;;;4953489;28;98679;-75
2022/10/14 12:44:27;;;;;;;52.92;32.53;;;16.70;99.90;;;;;;4970133;28;98559;-75
2022/10/14 12:46:54;;;;;;;49.70;31.73;;;16.70;99.90;;;;;;4954917;28;99344;-75
2022/10/14 12:49:26;;;;;;;47.03;29.02;;;16.70;99.90;;;;;;4954536;28;115701;-75
2022/10/14 12:51:55;;;;;;;50.00;31.27;;;16.70;99.90;;;;;;4955152;28;98695;-75
2022/10/14 12:54:24;;;;;;;49.83;31.27;;;16.60;99.90;;;;;;4955132;28;98606;-75
2022/10/14 12:57:01;;;;;;;54.47;33.50;;;16.60;99.90;;;;;;4969041;28;102244;-75